Bei Facebook empfehlenBei Twitter postenGoogle plusPinterest

Das Wetter im Erzgebirge am 16.03.2016

Wetter und Klima am 16.03.2016 Holzhau im Erzgebirge (630m ü.NN)
Letzte gemessene Temperatur und Uhrzeit der Messung23:45:00 Uhr-0.40 °C
Temperatur (Maximum / Höchstwert) und Uhrzeit der Messung14:30:00 Uhr5.10 °C
Temperatur (Minimum / Tiefstwert) und Uhrzeit der Messung06:30:00-1.90 °C
Errechneter Absolutwert der Temperaturschwankungen zwischen Tmin und Tmax des Tages7.00 K
Errechnete Tagesmitteltemperatur0.75833 °C
Gesamt - Niederschlag des Tages (in flüssiger Form)2.59 Liter / m²
Luftdruck (Maximum / Höchstwert) und Zeitpunkt der Messung19:45:00 Uhr1024.90 hPa
Luftdruck (Minimum / Tiefstwert) und Zeitpunkt der Messung00:00:00 Uhr1020.60 hPa
Errechneter Absolutwert der Luftdruckschwankungen des Tages4.30 hPa
Höchste gemessene Windgeschwindigkeit und Uhrzeit der Messung11:30:00 Uhr8.28 km/h
Errechnete Windhäufigkeit in Relation zu den Messwerten des Tages13.54167 %
Niedrigste Windkühle (Windchill) und Zeitpunkt der Messung22:00:00 Uhr-3.90 °C
Taupunkt (Maximum / Höchstwert) und Uhrzeit der Messung14:30:00 Uhr2.30 °C
Taupunkt (Minimum / Tiefstwert) und Uhrzeit der Messung21:15:00-3.30 °C
Anzahl der automatisch eingelesenen Messwerte 96

Detaillierte Wetter- und Klima- Messwerte für den 16.03.2016 in Holzhau im Erzgebirge (630m ü.NN)
ZeitTemperaturLuftdruckRel. LuftfeuchteWindWindrichtungWindchillTaupunktNiederschlag l/m²
23:45:00-0.40 °C1024.30 hPa90.00 %-2.00 °C2.59
23:30:00-0.30 °C1024.40 hPa90.00 %-1.90 °C2.59
23:15:00-0.40 °C1024.30 hPa90.00 %-2.00 °C2.59
23:00:00-0.70 °C1024.30 hPa90.00 %-2.30 °C2.59
22:45:00-1.00 °C1024.60 hPa90.00 %2.16 km/hONO-1.00 °C-2.60 °C2.59
22:30:00-0.90 °C1024.40 hPa90.00 %-2.50 °C2.59
22:15:00-1.10 °C1024.30 hPa90.00 %7.20 km/hONO-3.80 °C-2.70 °C2.59
22:00:00-1.20 °C1024.40 hPa89.00 %7.20 km/hSO-3.90 °C-3.00 °C2.59
21:45:00-1.20 °C1024.40 hPa89.00 %-3.00 °C2.59
21:30:00-1.40 °C1024.50 hPa89.00 %-3.20 °C2.59
21:15:00-1.40 °C1024.60 hPa88.00 %-3.30 °C2.59
21:00:00-1.10 °C1024.70 hPa88.00 %-3.00 °C2.59
20:45:00-0.70 °C1024.80 hPa88.00 %-2.60 °C2.59
20:30:00-0.20 °C1024.70 hPa87.00 %-2.30 °C2.59
20:15:000.10 °C1024.80 hPa87.00 %-1.80 °C2.59
20:00:000.40 °C1024.80 hPa87.00 %-1.50 °C2.59
19:45:000.50 °C1024.90 hPa87.00 %-1.40 °C2.59
19:30:000.60 °C1024.90 hPa87.00 %-1.30 °C2.59
19:15:000.70 °C1024.70 hPa86.00 %-1.40 °C2.59
19:00:000.80 °C1024.60 hPa86.00 %-1.30 °C2.59
18:45:000.90 °C1024.60 hPa85.00 %-1.30 °C2.59
18:30:001.30 °C1024.70 hPa85.00 %-0.90 °C2.59
18:15:001.40 °C1024.60 hPa84.00 %-1.00 °C2.59
18:00:001.80 °C1024.60 hPa83.00 %-0.80 °C2.59
17:45:002.30 °C1024.40 hPa83.00 %-0.30 °C2.59
17:30:002.40 °C1024.30 hPa82.00 %-0.40 °C2.59
17:15:002.60 °C1024.20 hPa81.00 %-0.30 °C2.59
17:00:003.20 °C1024.30 hPa82.00 %0.40 °C2.59
16:45:003.30 °C1024.30 hPa81.00 %0.40 °C2.59
16:30:003.40 °C1024.20 hPa81.00 %0.50 °C2.59
16:15:003.40 °C1024.50 hPa80.00 %0.30 °C2.07
16:00:003.80 °C1024.30 hPa79.00 %0.50 °C2.07
15:45:003.90 °C1024.40 hPa79.00 %4.32 km/hSO3.90 °C0.60 °C2.07
15:30:004.30 °C1024.40 hPa79.00 %1.00 °C2.07
15:15:004.80 °C1024.60 hPa79.00 %1.50 °C2.07
15:00:004.60 °C1024.60 hPa80.00 %1.50 °C2.07
14:45:004.60 °C1024.60 hPa79.00 %5.04 km/hSO3.60 °C1.30 °C2.07
14:30:005.10 °C1024.50 hPa82.00 %3.60 km/hNNO5.10 °C2.30 °C2.07
14:15:004.10 °C1024.40 hPa82.00 %1.30 °C1.55
14:00:003.60 °C1024.70 hPa82.00 %0.80 °C1.55
13:45:003.30 °C1024.70 hPa80.00 %0.20 °C1.55
13:30:003.90 °C1024.60 hPa80.00 %0.80 °C1.55
13:15:004.30 °C1024.80 hPa80.00 %1.20 °C1.03
13:00:004.20 °C1024.60 hPa80.00 %1.10 °C1.03
12:45:004.40 °C1024.50 hPa80.00 %1.30 °C1.03
12:30:005.00 °C1024.50 hPa80.00 %1.80 °C1.03
12:15:005.10 °C1024.50 hPa82.00 %2.30 °C0.51
12:00:004.10 °C1024.50 hPa82.00 %1.30 °C0.51
11:45:003.80 °C1024.40 hPa82.00 %3.60 km/hSO3.80 °C1.00 °C0.51
11:30:004.10 °C1024.20 hPa84.00 %8.28 km/hOSO2.00 °C1.60 °C0.51
11:15:002.90 °C1024.10 hPa84.00 %0.50 °C 
11:00:002.50 °C1024.20 hPa84.00 %0.10 °C 
10:45:002.70 °C1024.10 hPa85.00 %6.48 km/hSO0.90 °C0.40 °C 
10:30:002.80 °C1023.90 hPa86.00 %0.70 °C 
10:15:002.10 °C1023.80 hPa87.00 %0.20 °C 
10:00:002.10 °C1023.80 hPa88.00 %0.30 °C 
09:45:002.50 °C1023.50 hPa89.00 %2.16 km/hOSO2.50 °C0.90 °C 
09:30:001.30 °C1023.40 hPa91.00 %0.00 °C 
09:15:000.40 °C1023.20 hPa91.00 %-0.90 °C 
09:00:00-0.40 °C1023.00 hPa90.00 %-2.00 °C 
08:45:00-0.70 °C1022.90 hPa91.00 %-2.10 °C 
08:30:00-0.70 °C1022.60 hPa91.00 %-2.10 °C 
08:15:00-0.70 °C1022.50 hPa91.00 %5.40 km/hONO-2.60 °C-2.10 °C 
08:00:00-0.90 °C1023.00 hPa91.00 %3.96 km/hONO-0.90 °C-2.30 °C 
07:45:00-1.10 °C1022.60 hPa91.00 %-2.50 °C 
07:30:00-1.20 °C1022.50 hPa91.00 %-2.60 °C 
07:15:00-1.40 °C1022.40 hPa91.00 %-2.80 °C 
07:00:00-1.60 °C1022.50 hPa91.00 %-3.00 °C 
06:45:00-1.80 °C1022.40 hPa91.00 %-3.20 °C 
06:30:00-1.90 °C1022.20 hPa91.00 %-3.30 °C 
06:15:00-1.70 °C1022.20 hPa91.00 %-3.10 °C 
06:00:00-1.60 °C1022.20 hPa91.00 %-3.00 °C 
05:45:00-1.70 °C1022.10 hPa91.00 %-3.10 °C 
05:30:00-1.60 °C1021.80 hPa91.00 %-3.00 °C 
05:15:00-1.40 °C1021.80 hPa91.00 %-2.80 °C 
05:00:00-1.20 °C1021.80 hPa91.00 %-2.60 °C 
04:45:00-1.10 °C1021.60 hPa91.00 %-2.50 °C 
04:30:00-1.10 °C1021.70 hPa91.00 %5.76 km/hONO-3.20 °C-2.50 °C 
04:15:00-1.10 °C1021.70 hPa91.00 %-2.50 °C 
04:00:00-1.10 °C1021.60 hPa91.00 %-2.50 °C 
03:45:00-1.10 °C1021.50 hPa91.00 %-2.50 °C 
03:30:00-1.10 °C1021.50 hPa91.00 %-2.50 °C 
03:15:00-1.10 °C1021.50 hPa91.00 %-2.50 °C 
03:00:00-1.10 °C1021.50 hPa91.00 %-2.50 °C 
02:45:00-1.10 °C1021.50 hPa91.00 %-2.50 °C 
02:30:00-1.10 °C1021.20 hPa91.00 %-2.50 °C 
02:15:00-1.10 °C1021.40 hPa91.00 %-2.50 °C 
02:00:00-1.20 °C1021.20 hPa91.00 %-2.60 °C 
01:45:00-1.20 °C1021.10 hPa91.00 %-2.60 °C 
01:30:00-1.20 °C1021.10 hPa91.00 %-2.60 °C 
01:15:00-1.20 °C1021.10 hPa91.00 %-2.60 °C 
01:00:00-1.30 °C1021.10 hPa91.00 %-2.70 °C 
00:45:00-1.20 °C1021.00 hPa91.00 %-2.60 °C 
00:30:00-1.20 °C1021.00 hPa91.00 %-2.60 °C 
00:15:00-1.20 °C1020.80 hPa91.00 %-2.60 °C 
00:00:00-1.20 °C1020.60 hPa91.00 %-2.60 °C 

Permanenter Link zu dieser Seite: Wetter im Erzgebirge am 16.03.2016
Performance-Info: Die Erstellung der Seite / Statistik(en) / Tabelle(n) erforderte 5 Datenbankserver-Abfrage(n) und dauerte 100 Millisekunden. (Dieser Messwert ist von der Gesamt-Auslastung des Servers abhängig.)
Erzgebirge - Wetter | Erzgebirge - Wetter (Mobilgeräte) | Komplette Klimadatenbank